createdAt,value
2022-12-15T00:01:27.984Z,99211.25
2022-12-15T00:04:13.075Z,99221.53
2022-12-15T00:06:58.144Z,99212.72
2022-12-15T00:09:43.591Z,99209.38
2022-12-15T00:12:28.665Z,99209.38
2022-12-15T00:15:13.858Z,99210.44
2022-12-15T00:17:58.887Z,99209.78
2022-12-15T00:20:44.167Z,99215.25
2022-12-15T00:23:29.672Z,99210.22
2022-12-15T00:26:15.263Z,99204.78
2022-12-15T00:29:00.548Z,99210.22
2022-12-15T00:31:45.733Z,99210.59
2022-12-15T00:34:30.879Z,99209.59
2022-12-15T00:37:15.811Z,99209.59
2022-12-15T00:39:43.614Z,99213.97
2022-12-15T00:42:11.363Z,99214.78
2022-12-15T00:44:39.131Z,99219.41
2022-12-15T00:47:05.973Z,99224.19
2022-12-15T00:49:51.503Z,99228.63
2022-12-15T00:52:36.586Z,99229.03
2022-12-15T00:55:21.693Z,99231.75
2022-12-15T00:58:06.832Z,99235.50
2022-12-15T01:00:51.999Z,99239.47
2022-12-15T01:03:37.668Z,99244.47
2022-12-15T01:06:23.022Z,99240.09
2022-12-15T01:09:08.137Z,99243.00
2022-12-15T01:11:53.354Z,99252.00
2022-12-15T01:14:38.453Z,99254.94
2022-12-15T01:17:23.628Z,99257.00
2022-12-15T01:20:09.027Z,99253.84
2022-12-15T01:22:36.722Z,99259.50
2022-12-15T01:25:04.435Z,99265.34
2022-12-15T01:27:32.163Z,99264.72
2022-12-15T01:29:59.892Z,99265.31
2022-12-15T01:32:27.657Z,99274.94
2022-12-15T01:34:55.363Z,99279.53
2022-12-15T01:37:23.068Z,99279.53
2022-12-15T01:40:13.720Z,99279.75
2022-12-15T01:42:41.441Z,99287.47
2022-12-15T01:45:09.221Z,99291.03
2022-12-15T01:47:36.947Z,99289.97
2022-12-15T01:50:04.646Z,99295.22
2022-12-15T01:52:32.329Z,99287.47
2022-12-15T01:55:00.038Z,99290.59
2022-12-15T01:57:27.773Z,99292.66
2022-12-15T02:25:15.585Z,99316.84
2022-12-15T02:27:43.396Z,99322.09
2022-12-15T02:30:11.217Z,99316.06
2022-12-15T02:32:39.025Z,99317.94
2022-12-15T02:35:06.827Z,99315.84
2022-12-15T02:37:34.638Z,99321.28
2022-12-15T02:40:02.425Z,99319.59
2022-12-15T02:42:30.266Z,99330.47
2022-12-15T02:44:58.056Z,99334.25
2022-12-15T02:47:25.911Z,99337.97
2022-12-15T02:49:53.627Z,99342.56
2022-12-15T02:52:21.477Z,99334.63
2022-12-15T02:54:49.323Z,99334.84
2022-12-15T02:57:17.159Z,99341.28
2022-12-15T02:59:44.913Z,99350.50
2022-12-15T03:02:12.831Z,99354.25
2022-12-15T03:04:40.656Z,99361.75
2022-12-15T03:07:08.435Z,99371.78
2022-12-15T03:09:36.314Z,99383.50
2022-12-15T03:12:04.048Z,99387.44
2022-12-15T03:14:31.905Z,99386.78
2022-12-15T03:16:59.703Z,99388.22
2022-12-15T03:19:27.557Z,99390.69
2022-12-15T03:21:55.369Z,99392.75
2022-12-15T03:24:23.132Z,99395.00
2022-12-15T03:26:51.138Z,99398.59
2022-12-15T03:29:18.918Z,99390.44
2022-12-15T03:31:46.749Z,99389.56
2022-12-15T03:34:17.898Z,99396.06
2022-12-15T03:36:45.663Z,99394.16
2022-12-15T03:39:13.593Z,99397.72
2022-12-15T03:41:41.715Z,99394.16
2022-12-15T03:44:09.616Z,99388.09
2022-12-15T03:46:37.461Z,99398.78
2022-12-15T03:49:05.203Z,99397.09
2022-12-15T03:51:33.054Z,99401.31
2022-12-15T03:54:00.832Z,99398.59
2022-12-15T03:56:28.603Z,99405.03
2022-12-15T03:58:56.427Z,99413.00
2022-12-15T04:01:24.282Z,99414.88
2022-12-15T04:03:56.938Z,99420.50
2022-12-15T04:06:27.958Z,99426.97
2022-12-15T04:08:55.751Z,99421.31
2022-12-15T04:11:23.543Z,99428.81
2022-12-15T04:13:51.339Z,99428.81
2022-12-15T04:16:20.278Z,99426.97
2022-12-15T04:19:08.302Z,99431.34
2022-12-15T04:21:35.078Z,99431.75
2022-12-15T04:24:20.519Z,99438.03
2022-12-15T04:27:05.669Z,99435.69
2022-12-15T04:29:50.920Z,99441.13
2022-12-15T04:32:35.968Z,99435.88
2022-12-15T04:35:21.230Z,99445.91
2022-12-15T04:38:06.553Z,99446.75
2022-12-15T04:40:51.769Z,99451.53
2022-12-15T04:43:37.292Z,99447.97
2022-12-15T04:46:22.639Z,99447.16
2022-12-15T04:49:08.172Z,99447.16
2022-12-15T04:51:53.588Z,99452.56
2022-12-15T04:54:39.084Z,99455.88
2022-12-15T04:57:24.345Z,99466.53
2022-12-15T05:00:09.825Z,99469.66
2022-12-15T05:02:55.042Z,99472.38
2022-12-15T05:05:40.161Z,99479.66
2022-12-15T05:08:25.364Z,99480.69
2022-12-15T05:11:10.761Z,99478.38
2022-12-15T05:13:56.199Z,99480.44
2022-12-15T05:16:41.766Z,99488.78
2022-12-15T05:19:27.275Z,99487.09
2022-12-15T05:22:12.443Z,99487.09
2022-12-15T05:24:57.754Z,99490.03
2022-12-15T05:27:42.985Z,99490.03
2022-12-15T05:30:28.447Z,99487.31
2022-12-15T05:32:56.450Z,99498.16
2022-12-15T05:35:24.221Z,99496.28
2022-12-15T05:37:52.067Z,99495.06
2022-12-15T05:40:19.896Z,99502.53
2022-12-15T05:42:50.303Z,99505.91
2022-12-15T05:45:18.198Z,99508.63
2022-12-15T05:47:46.139Z,99513.00
2022-12-15T05:50:14.207Z,99511.34
2022-12-15T05:52:45.016Z,99510.50
2022-12-15T05:55:16.918Z,99522.19
2022-12-15T05:57:44.778Z,99525.56
2022-12-15T06:00:12.551Z,99527.22
2022-12-15T06:02:40.374Z,99526.78
2022-12-15T06:05:08.878Z,99527.63
2022-12-15T06:07:37.497Z,99535.38
2022-12-15T06:10:05.306Z,99536.22
2022-12-15T06:12:33.084Z,99529.94
2022-12-15T06:15:00.913Z,99531.00
2022-12-15T06:17:28.732Z,99547.28
2022-12-15T06:19:56.960Z,99549.59
2022-12-15T06:22:24.797Z,99558.75
2022-12-15T06:24:52.560Z,99568.59
2022-12-15T06:27:20.453Z,99573.38
2022-12-15T06:29:48.291Z,99585.28
2022-12-15T06:32:16.050Z,99585.28
2022-12-15T06:34:43.913Z,99587.34
2022-12-15T06:37:12.870Z,99590.06
2022-12-15T06:39:40.793Z,99600.25
2022-12-15T06:42:08.614Z,99596.88
2022-12-15T06:44:36.443Z,99601.66
2022-12-15T06:47:04.362Z,99605.25
2022-12-15T06:49:33.283Z,99604.38
2022-12-15T06:52:01.026Z,99597.94
2022-12-15T06:54:28.823Z,99600.66
2022-12-15T06:56:56.562Z,99600.81
2022-12-15T06:59:24.341Z,99601.22
2022-12-15T07:01:52.325Z,99613.94
2022-12-15T07:04:20.497Z,99612.63
2022-12-15T07:06:48.323Z,99618.44
2022-12-15T07:09:18.231Z,99612.19
2022-12-15T07:11:49.339Z,99608.63
2022-12-15T07:14:17.170Z,99607.59
2022-12-15T07:16:46.157Z,99608.41
2022-12-15T07:19:14.052Z,99614.88
2022-12-15T07:21:42.560Z,99614.06
2022-12-15T07:24:10.338Z,99623.59
2022-12-15T07:26:38.143Z,99630.06
2022-12-15T07:29:05.896Z,99638.19
2022-12-15T07:31:33.677Z,99635.66
2022-12-15T07:34:01.869Z,99634.44
2022-12-15T07:36:29.630Z,99642.97
2022-12-15T07:38:57.442Z,99635.50
2022-12-15T07:41:25.215Z,99643.63
2022-12-15T07:43:53.154Z,99643.81
2022-12-15T07:46:20.970Z,99651.09
2022-12-15T07:48:50.240Z,99661.13
2022-12-15T07:51:20.112Z,99661.50
2022-12-15T07:53:49.523Z,99659.63
2022-12-15T07:56:17.360Z,99659.63
2022-12-15T07:58:45.113Z,99668.59
2022-12-15T08:01:13.468Z,99665.06
2022-12-15T08:03:41.634Z,99675.72
2022-12-15T08:06:10.195Z,99672.81
2022-12-15T08:08:38.105Z,99669.28
2022-12-15T08:11:05.896Z,99673.84
2022-12-15T08:14:01.479Z,99679.28
2022-12-15T08:16:21.502Z,99675.53
2022-12-15T08:21:41.459Z,99686.75
2022-12-15T08:24:09.319Z,99686.75
2022-12-15T08:26:38.004Z,99690.50
2022-12-15T08:31:53.776Z,99687.16
2022-12-15T08:34:21.634Z,99697.63
2022-12-15T08:36:49.374Z,99692.19
2022-12-15T08:39:17.569Z,99690.69
2022-12-15T08:41:45.337Z,99691.53
2022-12-15T08:44:13.096Z,99690.69
2022-12-15T08:46:41.039Z,99683.38
2022-12-15T08:49:09.168Z,99688.81
2022-12-15T08:51:36.896Z,99693.56
2022-12-15T08:54:04.695Z,99699.00
2022-12-15T08:56:32.508Z,99699.56
2022-12-15T08:59:00.363Z,99700.78
2022-12-15T09:01:28.341Z,99704.53
2022-12-15T09:03:56.395Z,99717.25
2022-12-15T09:06:24.128Z,99719.75
2022-12-15T09:08:51.899Z,99711.63
2022-12-15T09:11:19.757Z,99717.06
2022-12-15T09:13:47.973Z,99712.50
2022-12-15T09:16:15.919Z,99711.00
2022-12-15T09:18:43.848Z,99710.13
2022-12-15T09:21:12.242Z,99713.03
2022-12-15T09:23:40.008Z,99705.91
2022-12-15T09:26:07.765Z,99711.53
2022-12-15T09:28:35.583Z,99705.28
2022-12-15T09:31:03.412Z,99709.00
2022-12-15T09:33:31.642Z,99705.28
2022-12-15T09:35:59.759Z,99712.38
2022-12-15T09:38:27.594Z,99714.44
2022-12-15T09:40:55.385Z,99724.25
2022-12-15T09:43:43.114Z,99724.91
2022-12-15T09:46:11.022Z,99738.66
2022-12-15T09:48:39.016Z,99735.75
2022-12-15T09:51:06.796Z,99724.06
2022-12-15T09:56:22.339Z,99734.91
2022-12-15T09:58:50.772Z,99732.03
2022-12-15T10:01:18.655Z,99736.63
2022-12-15T10:03:46.590Z,99747.25
2022-12-15T10:06:21.154Z,99751.84
2022-12-15T10:08:52.891Z,99747.47
2022-12-15T10:11:20.840Z,99747.25
2022-12-15T10:13:48.557Z,99742.88
2022-12-15T10:16:18.166Z,99745.59
2022-12-15T10:18:46.027Z,99745.38
2022-12-15T10:21:18.079Z,99753.72
2022-12-15T10:23:45.870Z,99766.25
2022-12-15T10:26:19.186Z,99762.03
2022-12-15T10:28:51.279Z,99768.31
2022-12-15T10:31:19.488Z,99771.88
2022-12-15T10:36:35.500Z,99764.28
2022-12-15T10:39:03.461Z,99762.41
2022-12-15T10:41:31.297Z,99752.78
2022-12-15T10:43:59.146Z,99757.34
2022-12-15T10:46:26.917Z,99759.91
2022-12-15T10:48:55.238Z,99759.91
2022-12-15T10:51:23.044Z,99753.81
2022-12-15T10:53:51.235Z,99768.22
2022-12-15T10:56:18.994Z,99764.00
2022-12-15T10:58:46.750Z,99769.59
2022-12-15T11:01:18.190Z,99762.31
2022-12-15T11:03:46.754Z,99757.72
2022-12-15T11:06:14.899Z,99755.03
2022-12-15T11:08:42.642Z,99757.53
2022-12-15T11:11:28.065Z,99761.13
2022-12-15T11:13:55.859Z,99751.47
2022-12-15T11:16:23.713Z,99756.53
2022-12-15T11:18:51.495Z,99766.34
2022-12-15T11:21:19.347Z,99762.63
2022-12-15T11:26:34.892Z,99760.91
2022-12-15T11:29:02.741Z,99761.75
2022-12-15T11:31:30.467Z,99759.91
2022-12-15T11:33:58.245Z,99765.31
2022-12-15T11:36:26.233Z,99767.16
2022-12-15T11:38:54.137Z,99766.16
2022-12-15T11:41:23.270Z,99768.88
2022-12-15T11:43:51.099Z,99763.63
2022-12-15T11:46:18.981Z,99756.53
2022-12-15T11:48:46.783Z,99763.63
2022-12-15T11:51:16.725Z,99761.56
2022-12-15T11:53:44.510Z,99763.25
2022-12-15T11:56:13.532Z,99758.66
2022-12-15T11:58:41.327Z,99756.97
2022-12-15T12:01:09.176Z,99752.78
2022-12-15T12:03:36.997Z,99751.94
2022-12-15T12:06:04.769Z,99753.59
2022-12-15T12:08:32.967Z,99743.63
2022-12-15T12:11:01.063Z,99740.91
2022-12-15T12:13:28.870Z,99747.34
2022-12-15T12:15:56.846Z,99746.50
2022-12-15T12:18:24.604Z,99734.81
2022-12-15T12:20:52.350Z,99744.84
2022-12-15T12:23:20.268Z,99744.84
2022-12-15T12:25:48.128Z,99738.91
2022-12-15T12:28:16.682Z,99750.97
2022-12-15T12:30:44.476Z,99738.25
2022-12-15T12:33:14.150Z,99746.75
2022-12-15T12:35:41.960Z,99749.31
2022-12-15T12:38:09.809Z,99746.75
2022-12-15T12:40:37.722Z,99748.47
2022-12-15T12:43:11.891Z,99737.63
2022-12-15T12:45:41.742Z,99748.25
2022-12-15T12:48:09.542Z,99737.63
2022-12-15T12:50:37.475Z,99736.41
2022-12-15T12:53:05.276Z,99740.13
2022-12-15T12:55:33.035Z,99740.97
2022-12-15T12:58:00.832Z,99736.59
2022-12-15T13:00:28.688Z,99734.53
2022-12-15T13:02:56.663Z,99738.75
2022-12-15T13:05:24.519Z,99733.13
2022-12-15T13:07:52.314Z,99731.63
2022-12-15T13:10:20.158Z,99731.81
2022-12-15T13:12:52.337Z,99726.19
2022-12-15T13:15:20.943Z,99723.31
2022-12-15T13:17:48.885Z,99725.34
2022-12-15T13:20:16.695Z,99729.78
2022-12-15T13:22:44.557Z,99735.84
2022-12-15T13:25:13.218Z,99729.78
2022-12-15T13:27:41.761Z,99736.41
2022-12-15T13:30:09.517Z,99733.69
2022-12-15T13:32:37.330Z,99729.94
2022-12-15T13:35:05.274Z,99731.81
2022-12-15T13:37:33.016Z,99717.22
2022-12-15T13:40:00.937Z,99723.47
2022-12-15T13:45:16.845Z,99723.69
2022-12-15T13:47:44.620Z,99726.41
2022-12-15T13:50:12.472Z,99722.84
2022-12-15T13:53:16.672Z,99726.56
2022-12-15T13:55:28.422Z,99724.06
2022-12-15T13:57:56.347Z,99729.28
2022-12-15T14:00:24.279Z,99725.72
2022-12-15T14:02:54.848Z,99719.47
2022-12-15T14:05:22.734Z,99715.06
2022-12-15T14:07:54.547Z,99708.41
2022-12-15T14:10:22.660Z,99716.09
2022-12-15T14:12:50.416Z,99722.53
2022-12-15T14:15:18.384Z,99721.66
2022-12-15T14:17:46.176Z,99719.97
2022-12-15T14:20:17.129Z,99730.84
2022-12-15T14:22:44.960Z,99724.75
2022-12-15T14:25:13.270Z,99729.50
2022-12-15T14:27:41.127Z,99734.09
2022-12-15T14:30:08.950Z,99738.66
2022-12-15T14:32:36.816Z,99738.50
2022-12-15T14:35:04.588Z,99742.06
2022-12-15T14:37:32.448Z,99746.81
2022-12-15T14:40:00.248Z,99744.47
2022-12-15T14:42:28.037Z,99743.44
2022-12-15T14:44:58.316Z,99728.13
2022-12-15T14:47:26.892Z,99740.28
2022-12-15T14:49:54.876Z,99747.13
2022-12-15T14:52:22.718Z,99752.03
2022-12-15T14:54:50.596Z,99761.13
2022-12-15T14:57:19.439Z,99761.09
2022-12-15T14:59:48.595Z,99752.47
2022-12-15T15:02:16.554Z,99755.22
2022-12-15T15:03:07.531Z,99721.81
2022-12-15T15:03:11.194Z,99767.66
2022-12-15T15:03:13.571Z,99763.63
2022-12-15T15:04:44.423Z,99755.22
2022-12-15T15:07:12.189Z,99749.22
2022-12-15T15:09:39.933Z,99740.38
2022-12-15T15:12:07.858Z,99735.56
2022-12-15T15:14:35.622Z,99740.41
2022-12-15T15:17:03.599Z,99739.38
2022-12-15T15:19:32.387Z,99739.44
2022-12-15T15:22:04.367Z,99734.25
2022-12-15T15:24:32.163Z,99723.69
2022-12-15T15:26:59.989Z,99715.44
2022-12-15T15:29:28.134Z,99710.38
2022-12-15T15:31:55.893Z,99712.97
2022-12-15T15:34:23.681Z,99709.16
2022-12-15T15:36:51.832Z,99715.69
2022-12-15T15:39:21.539Z,99723.50
2022-12-15T15:41:49.299Z,99713.38
2022-12-15T15:44:17.048Z,99720.28
2022-12-15T15:46:48.238Z,99713.38
2022-12-15T15:49:16.293Z,99739.31
2022-12-15T15:51:44.127Z,99734.53
2022-12-15T15:54:11.897Z,99733.78
2022-12-15T15:56:39.685Z,99727.19
2022-12-15T15:59:07.513Z,99728.03
2022-12-15T16:01:35.437Z,99731.59
2022-12-15T16:04:03.356Z,99736.44
2022-12-15T16:06:31.238Z,99731.03
2022-12-15T16:08:59.708Z,99727.56
2022-12-15T16:11:27.458Z,99740.03
2022-12-15T16:13:55.182Z,99740.66
2022-12-15T16:16:23.000Z,99742.22
2022-12-15T16:18:50.854Z,99744.91
2022-12-15T16:21:18.583Z,99751.31
2022-12-15T16:23:46.365Z,99760.03
2022-12-15T16:26:14.161Z,99759.25
2022-12-15T16:28:41.942Z,99758.16
2022-12-15T16:31:09.736Z,99756.41
2022-12-15T16:33:37.759Z,99754.84
2022-12-15T16:36:05.501Z,99765.28
2022-12-15T16:38:33.685Z,99766.78
2022-12-15T16:41:01.812Z,99778.84
2022-12-15T16:43:34.609Z,99778.69
2022-12-15T16:46:05.857Z,99769.78
2022-12-15T16:48:34.010Z,99774.94
2022-12-15T16:51:02.638Z,99778.75
2022-12-15T16:53:30.401Z,99779.13
2022-12-15T16:55:58.167Z,99781.19
2022-12-15T16:58:26.282Z,99777.59
2022-12-15T17:00:54.059Z,99784.28
2022-12-15T17:03:23.375Z,99782.88
2022-12-15T17:05:51.365Z,99794.16
2022-12-15T17:08:20.143Z,99794.03
2022-12-15T17:10:48.000Z,99778.19
2022-12-15T17:13:15.862Z,99778.22
2022-12-15T17:15:44.488Z,99769.03
2022-12-15T17:18:13.503Z,99780.44
2022-12-15T17:20:41.263Z,99773.78
2022-12-15T17:23:09.013Z,99770.97
2022-12-15T17:26:18.097Z,99768.88
2022-12-15T17:28:24.545Z,99767.69
2022-12-15T17:30:52.411Z,99765.22
2022-12-15T17:33:20.217Z,99766.56
2022-12-15T17:35:48.152Z,99777.06
2022-12-15T17:38:16.263Z,99768.28
2022-12-15T17:40:43.999Z,99768.19
2022-12-15T17:43:11.727Z,99766.94
2022-12-15T17:45:39.490Z,99763.84
2022-12-15T17:48:07.246Z,99757.16
2022-12-15T17:50:35.033Z,99761.25
2022-12-15T17:53:02.796Z,99761.25
2022-12-15T17:55:35.046Z,99750.13
2022-12-15T17:58:03.257Z,99758.63
2022-12-15T18:00:30.984Z,99761.81
2022-12-15T18:02:59.160Z,99765.06
2022-12-15T18:05:27.157Z,99763.88
2022-12-15T18:07:54.933Z,99773.03
2022-12-15T18:10:22.730Z,99758.94
2022-12-15T18:12:50.434Z,99766.47
2022-12-15T18:15:18.527Z,99767.13
2022-12-15T18:17:46.252Z,99770.91
2022-12-15T18:20:14.004Z,99768.13
2022-12-15T18:22:41.733Z,99768.91
2022-12-15T18:25:09.576Z,99783.41
2022-12-15T18:27:37.329Z,99780.50
2022-12-15T18:30:05.061Z,99770.94
2022-12-15T18:32:38.175Z,99762.59
2022-12-15T18:35:06.243Z,99771.53
2022-12-15T18:37:35.809Z,99778.31
2022-12-15T18:40:05.075Z,99776.28
2022-12-15T18:42:33.153Z,99781.00
2022-12-15T18:45:04.967Z,99778.72
2022-12-15T18:47:32.723Z,99793.16
2022-12-15T18:50:00.506Z,99788.38
2022-12-15T18:52:34.315Z,99792.34
2022-12-15T18:55:02.601Z,99783.25
2022-12-15T18:57:30.311Z,99781.06
2022-12-15T18:59:58.611Z,99776.50
2022-12-15T19:02:26.437Z,99778.88
2022-12-15T19:04:54.201Z,99779.19
2022-12-15T19:07:21.961Z,99784.09
2022-12-15T19:09:49.730Z,99787.13
2022-12-15T19:12:20.567Z,99804.78
2022-12-15T19:14:48.316Z,99799.13
2022-12-15T19:17:33.744Z,99793.53
2022-12-15T19:20:18.845Z,99807.34
2022-12-15T19:22:46.665Z,99796.91
2022-12-15T19:25:14.342Z,99796.19
2022-12-15T19:27:42.364Z,99791.69
2022-12-15T19:30:10.126Z,99795.78
2022-12-15T19:32:37.854Z,99794.56
2022-12-15T19:35:05.581Z,99799.06
2022-12-15T19:37:34.059Z,99789.84
2022-12-15T19:40:01.796Z,99793.88
2022-12-15T19:42:29.553Z,99785.56
2022-12-15T19:44:57.285Z,99786.63
2022-12-15T19:47:25.103Z,99787.66
2022-12-15T19:49:53.227Z,99783.22
2022-12-15T19:52:22.874Z,99775.88
2022-12-15T19:54:50.694Z,99782.78
2022-12-15T19:57:18.499Z,99775.09
2022-12-15T19:59:46.235Z,99776.16
2022-12-15T20:02:14.057Z,99766.50
2022-12-15T20:04:41.894Z,99760.13
2022-12-15T20:07:09.662Z,99758.06
2022-12-15T20:09:38.097Z,99745.16
2022-12-15T20:12:05.819Z,99740.63
2022-12-15T20:14:33.535Z,99744.47
2022-12-15T20:17:01.295Z,99744.28
2022-12-15T20:19:29.056Z,99753.25
2022-12-15T20:21:56.811Z,99733.31
2022-12-15T20:24:24.604Z,99727.53
2022-12-15T20:26:52.367Z,99738.34
2022-12-15T20:29:22.674Z,99741.72
2022-12-15T20:31:50.466Z,99734.25
2022-12-15T20:34:18.343Z,99732.72
2022-12-15T20:36:47.409Z,99731.66
2022-12-15T20:39:15.134Z,99735.31
2022-12-15T20:41:42.881Z,99721.44
2022-12-15T20:44:10.607Z,99718.94
2022-12-15T20:46:38.350Z,99729.50
2022-12-15T20:49:06.439Z,99733.75
2022-12-15T20:51:34.185Z,99727.56
2022-12-15T20:54:01.899Z,99719.22
2022-12-15T20:56:29.646Z,99709.81
2022-12-15T20:58:57.384Z,99713.88
2022-12-15T21:01:25.432Z,99716.03
2022-12-15T21:03:53.486Z,99705.59
2022-12-15T21:06:21.355Z,99702.44
2022-12-15T21:08:49.490Z,99697.09
2022-12-15T21:11:18.351Z,99705.25
2022-12-15T21:13:46.153Z,99716.09
2022-12-15T21:16:13.862Z,99715.72
2022-12-15T21:19:18.163Z,99714.94
2022-12-15T21:21:29.435Z,99719.03
2022-12-15T21:23:57.190Z,99720.56
2022-12-15T21:26:25.021Z,99711.78
2022-12-15T21:28:52.916Z,99709.44
2022-12-15T21:31:21.296Z,99703.38
2022-12-15T21:33:49.206Z,99700.25
2022-12-15T21:36:16.983Z,99693.31
2022-12-15T21:38:44.745Z,99692.28
2022-12-15T21:41:12.544Z,99686.41
2022-12-15T21:43:40.291Z,99696.69
2022-12-15T21:46:08.171Z,99699.66
2022-12-15T21:49:08.344Z,99700.69
2022-12-15T21:51:36.083Z,99714.75
2022-12-15T21:54:03.968Z,99714.13
2022-12-15T21:56:31.846Z,99710.31
2022-12-15T21:58:59.684Z,99704.47
2022-12-15T22:01:27.575Z,99709.03
2022-12-15T22:03:55.369Z,99714.06
2022-12-15T22:06:23.111Z,99718.25
2022-12-15T22:08:50.847Z,99723.28
2022-12-15T22:11:19.401Z,99726.44
2022-12-15T22:13:47.206Z,99723.06
2022-12-15T22:16:15.078Z,99722.00
2022-12-15T22:18:42.913Z,99712.72
2022-12-15T22:21:10.603Z,99727.84
2022-12-15T22:23:38.408Z,99722.81
2022-12-15T22:26:06.202Z,99726.78
2022-12-15T22:28:34.328Z,99726.56
2022-12-15T22:31:02.697Z,99740.97
2022-12-15T22:33:31.780Z,99735.75
2022-12-15T22:35:59.810Z,99740.13
2022-12-15T22:38:27.570Z,99743.47
2022-12-15T22:40:55.667Z,99741.13
2022-12-15T22:43:23.429Z,99745.13
2022-12-15T22:45:51.165Z,99745.94
2022-12-15T22:48:19.610Z,99758.09
2022-12-15T22:50:47.397Z,99762.88
2022-12-15T22:53:15.619Z,99754.06
2022-12-15T22:55:43.365Z,99752.59
2022-12-15T22:58:11.422Z,99749.03
2022-12-15T23:00:39.165Z,99749.44
2022-12-15T23:03:06.871Z,99754.06
2022-12-15T23:05:34.593Z,99759.50
2022-12-15T23:08:02.370Z,99753.97
2022-12-15T23:10:47.706Z,99753.53
2022-12-15T23:13:15.600Z,99753.09
2022-12-15T23:16:01.035Z,99748.91
2022-12-15T23:18:29.069Z,99746.56
2022-12-15T23:20:59.381Z,99748.84
2022-12-15T23:23:28.241Z,99754.72
2022-12-15T23:25:56.280Z,99754.25
2022-12-15T23:28:24.030Z,99751.94
2022-12-15T23:30:51.898Z,99744.59
2022-12-15T23:33:19.781Z,99749.19
2022-12-15T23:35:47.528Z,99754.00
2022-12-15T23:38:15.876Z,99746.88
2022-12-15T23:40:46.996Z,99744.56
2022-12-15T23:43:18.869Z,99742.03
2022-12-15T23:45:46.854Z,99746.63
2022-12-15T23:48:14.625Z,99741.19
2022-12-15T23:50:42.498Z,99742.25
2022-12-15T23:53:10.282Z,99732.78
2022-12-15T23:55:38.087Z,99729.88
2022-12-15T23:58:05.907Z,99729.03
